sensor_id;sensor_type;location;lat;lon;timestamp;temperature;humidity
54429;DHT22;40337;52.978;6.310;2023-07-13T00:02:15;16.20;99.90
54429;DHT22;40337;52.978;6.310;2023-07-13T00:04:41;16.20;99.90
54429;DHT22;40337;52.978;6.310;2023-07-13T00:07:07;16.20;99.90
54429;DHT22;40337;52.978;6.310;2023-07-13T00:09:33;16.20;99.90
54429;DHT22;40337;52.978;6.310;2023-07-13T00:11:59;16.30;99.90
54429;DHT22;40337;52.978;6.310;2023-07-13T00:14:26;16.30;99.90
54429;DHT22;40337;52.978;6.310;2023-07-13T00:16:53;16.30;99.90
54429;DHT22;40337;52.978;6.310;2023-07-13T00:19:18;16.20;99.90
54429;DHT22;40337;52.978;6.310;2023-07-13T00:21:44;16.30;99.90
54429;DHT22;40337;52.978;6.310;2023-07-13T00:24:12;16.30;99.90
54429;DHT22;40337;52.978;6.310;2023-07-13T00:26:39;16.30;99.90
54429;DHT22;40337;52.978;6.310;2023-07-13T00:29:05;16.30;99.90
54429;DHT22;40337;52.978;6.310;2023-07-13T00:31:35;16.30;99.90
54429;DHT22;40337;52.978;6.310;2023-07-13T00:34:01;16.30;99.90
54429;DHT22;40337;52.978;6.310;2023-07-13T00:36:27;16.30;99.90
54429;DHT22;40337;52.978;6.310;2023-07-13T00:38:53;16.40;99.90
54429;DHT22;40337;52.978;6.310;2023-07-13T00:41:19;16.30;99.90
54429;DHT22;40337;52.978;6.310;2023-07-13T00:43:44;16.30;99.90
54429;DHT22;40337;52.978;6.310;2023-07-13T00:46:25;16.30;99.90
54429;DHT22;40337;52.978;6.310;2023-07-13T00:48:54;16.30;99.90
54429;DHT22;40337;52.978;6.310;2023-07-13T00:51:25;16.20;99.90
54429;DHT22;40337;52.978;6.310;2023-07-13T00:53:53;16.20;99.90
54429;DHT22;40337;52.978;6.310;2023-07-13T00:56:19;16.20;99.90
54429;DHT22;40337;52.978;6.310;2023-07-13T00:58:45;16.10;99.90
54429;DHT22;40337;52.978;6.310;2023-07-13T01:01:11;16.20;99.90
54429;DHT22;40337;52.978;6.310;2023-07-13T01:03:38;16.10;99.90
54429;DHT22;40337;52.978;6.310;2023-07-13T01:06:06;16.20;99.90
54429;DHT22;40337;52.978;6.310;2023-07-13T01:08:31;16.10;99.90
54429;DHT22;40337;52.978;6.310;2023-07-13T01:10:58;16.20;99.90
54429;DHT22;40337;52.978;6.310;2023-07-13T01:13:24;16.20;99.90
54429;DHT22;40337;52.978;6.310;2023-07-13T01:15:51;16.20;99.90
54429;DHT22;40337;52.978;6.310;2023-07-13T01:18:23;16.20;99.90
54429;DHT22;40337;52.978;6.310;2023-07-13T01:21:01;16.20;99.90
54429;DHT22;40337;52.978;6.310;2023-07-13T01:23:28;16.30;99.90
54429;DHT22;40337;52.978;6.310;2023-07-13T01:25:54;16.30;99.90
54429;DHT22;40337;52.978;6.310;2023-07-13T01:28:22;16.30;99.90
54429;DHT22;40337;52.978;6.310;2023-07-13T01:30:48;16.30;99.90
54429;DHT22;40337;52.978;6.310;2023-07-13T01:33:15;16.30;99.90
54429;DHT22;40337;52.978;6.310;2023-07-13T01:35:42;16.30;99.90
54429;DHT22;40337;52.978;6.310;2023-07-13T01:38:09;16.30;99.90
54429;DHT22;40337;52.978;6.310;2023-07-13T01:40:36;16.30;99.90
54429;DHT22;40337;52.978;6.310;2023-07-13T01:43:02;16.30;99.90
54429;DHT22;40337;52.978;6.310;2023-07-13T01:45:28;16.30;99.90
54429;DHT22;40337;52.978;6.310;2023-07-13T01:47:54;16.30;99.90
54429;DHT22;40337;52.978;6.310;2023-07-13T01:50:19;16.30;99.90
54429;DHT22;40337;52.978;6.310;2023-07-13T01:52:45;16.30;99.90
54429;DHT22;40337;52.978;6.310;2023-07-13T01:55:11;16.30;99.90
54429;DHT22;40337;52.978;6.310;2023-07-13T01:57:36;16.30;99.90
54429;DHT22;40337;52.978;6.310;2023-07-13T02:00:04;16.20;99.90
54429;DHT22;40337;52.978;6.310;2023-07-13T02:02:30;16.20;99.90
54429;DHT22;40337;52.978;6.310;2023-07-13T02:04:56;16.20;99.90
54429;DHT22;40337;52.978;6.310;2023-07-13T02:07:22;16.10;99.90
54429;DHT22;40337;52.978;6.310;2023-07-13T02:09:48;16.10;99.90
54429;DHT22;40337;52.978;6.310;2023-07-13T02:12:13;16.10;99.90
54429;DHT22;40337;52.978;6.310;2023-07-13T02:14:39;16.00;99.90
54429;DHT22;40337;52.978;6.310;2023-07-13T02:17:05;16.00;99.90
54429;DHT22;40337;52.978;6.310;2023-07-13T02:19:32;16.00;99.90
54429;DHT22;40337;52.978;6.310;2023-07-13T02:21:57;16.00;99.90
54429;DHT22;40337;52.978;6.310;2023-07-13T02:24:23;16.00;99.90
54429;DHT22;40337;52.978;6.310;2023-07-13T02:26:49;16.00;99.90
54429;DHT22;40337;52.978;6.310;2023-07-13T02:29:15;15.90;99.90
54429;DHT22;40337;52.978;6.310;2023-07-13T02:31:40;15.90;99.90
54429;DHT22;40337;52.978;6.310;2023-07-13T02:34:06;15.90;99.90
54429;DHT22;40337;52.978;6.310;2023-07-13T02:36:32;15.90;99.90
54429;DHT22;40337;52.978;6.310;2023-07-13T02:39:02;15.80;99.90
54429;DHT22;40337;52.978;6.310;2023-07-13T02:41:28;15.90;99.90
54429;DHT22;40337;52.978;6.310;2023-07-13T02:43:54;15.80;99.90
54429;DHT22;40337;52.978;6.310;2023-07-13T02:46:19;15.80;99.90
54429;DHT22;40337;52.978;6.310;2023-07-13T02:48:46;15.80;99.90
54429;DHT22;40337;52.978;6.310;2023-07-13T02:51:11;15.80;99.90
54429;DHT22;40337;52.978;6.310;2023-07-13T02:53:37;15.70;99.90
54429;DHT22;40337;52.978;6.310;2023-07-13T02:56:04;15.70;99.90
54429;DHT22;40337;52.978;6.310;2023-07-13T02:58:30;15.70;99.90
54429;DHT22;40337;52.978;6.310;2023-07-13T03:00:56;15.70;99.90
54429;DHT22;40337;52.978;6.310;2023-07-13T03:03:23;15.60;99.90
54429;DHT22;40337;52.978;6.310;2023-07-13T03:05:58;15.60;99.90
54429;DHT22;40337;52.978;6.310;2023-07-13T03:08:26;15.60;99.90
54429;DHT22;40337;52.978;6.310;2023-07-13T03:11:00;15.50;99.90
54429;DHT22;40337;52.978;6.310;2023-07-13T03:13:26;15.60;99.90
54429;DHT22;40337;52.978;6.310;2023-07-13T03:15:51;15.60;99.90
54429;DHT22;40337;52.978;6.310;2023-07-13T03:18:17;15.50;99.90
54429;DHT22;40337;52.978;6.310;2023-07-13T03:20:43;15.50;99.90
54429;DHT22;40337;52.978;6.310;2023-07-13T03:23:09;15.50;99.90
54429;DHT22;40337;52.978;6.310;2023-07-13T03:25:35;15.50;99.90
54429;DHT22;40337;52.978;6.310;2023-07-13T03:28:00;15.50;99.90
54429;DHT22;40337;52.978;6.310;2023-07-13T03:30:26;15.50;99.90
54429;DHT22;40337;52.978;6.310;2023-07-13T03:32:51;15.50;99.90
54429;DHT22;40337;52.978;6.310;2023-07-13T03:35:17;15.50;99.90
54429;DHT22;40337;52.978;6.310;2023-07-13T03:37:43;15.50;99.90
54429;DHT22;40337;52.978;6.310;2023-07-13T03:40:09;15.50;99.90
54429;DHT22;40337;52.978;6.310;2023-07-13T03:42:35;15.50;99.90
54429;DHT22;40337;52.978;6.310;2023-07-13T03:45:01;15.50;99.90
54429;DHT22;40337;52.978;6.310;2023-07-13T03:47:26;15.50;99.90
54429;DHT22;40337;52.978;6.310;2023-07-13T03:49:52;15.50;99.90
54429;DHT22;40337;52.978;6.310;2023-07-13T03:52:19;15.50;99.90
54429;DHT22;40337;52.978;6.310;2023-07-13T03:54:44;15.60;99.90
54429;DHT22;40337;52.978;6.310;2023-07-13T03:57:10;15.60;99.90
54429;DHT22;40337;52.978;6.310;2023-07-13T03:59:35;15.60;99.90
54429;DHT22;40337;52.978;6.310;2023-07-13T04:02:02;15.70;99.90
54429;DHT22;40337;52.978;6.310;2023-07-13T04:04:29;15.70;99.90
54429;DHT22;40337;52.978;6.310;2023-07-13T04:06:57;15.70;99.90
54429;DHT22;40337;52.978;6.310;2023-07-13T04:09:24;15.70;99.90
54429;DHT22;40337;52.978;6.310;2023-07-13T04:11:50;15.70;99.90
54429;DHT22;40337;52.978;6.310;2023-07-13T04:14:16;15.70;99.90
54429;DHT22;40337;52.978;6.310;2023-07-13T04:16:42;15.70;99.90
54429;DHT22;40337;52.978;6.310;2023-07-13T04:19:09;15.70;99.90
54429;DHT22;40337;52.978;6.310;2023-07-13T04:21:36;15.70;99.90
54429;DHT22;40337;52.978;6.310;2023-07-13T04:24:03;15.70;99.90
54429;DHT22;40337;52.978;6.310;2023-07-13T04:26:29;15.70;99.90
54429;DHT22;40337;52.978;6.310;2023-07-13T04:28:56;15.80;99.90
54429;DHT22;40337;52.978;6.310;2023-07-13T04:31:22;15.80;99.90
54429;DHT22;40337;52.978;6.310;2023-07-13T04:33:48;15.80;99.90
54429;DHT22;40337;52.978;6.310;2023-07-13T04:36:15;15.80;99.90
54429;DHT22;40337;52.978;6.310;2023-07-13T04:38:41;15.80;99.90
54429;DHT22;40337;52.978;6.310;2023-07-13T04:41:08;15.90;99.90
54429;DHT22;40337;52.978;6.310;2023-07-13T04:43:35;16.00;99.90
54429;DHT22;40337;52.978;6.310;2023-07-13T04:46:05;16.00;99.90
54429;DHT22;40337;52.978;6.310;2023-07-13T04:48:31;16.00;99.90
54429;DHT22;40337;52.978;6.310;2023-07-13T04:50:58;16.10;99.90
54429;DHT22;40337;52.978;6.310;2023-07-13T04:53:25;16.10;99.90
54429;DHT22;40337;52.978;6.310;2023-07-13T04:55:51;16.20;99.90
54429;DHT22;40337;52.978;6.310;2023-07-13T04:58:16;16.20;99.90
54429;DHT22;40337;52.978;6.310;2023-07-13T05:00:42;16.30;99.90
54429;DHT22;40337;52.978;6.310;2023-07-13T05:03:08;16.30;99.90
54429;DHT22;40337;52.978;6.310;2023-07-13T05:05:34;16.30;99.90
54429;DHT22;40337;52.978;6.310;2023-07-13T05:08:00;16.30;99.90
54429;DHT22;40337;52.978;6.310;2023-07-13T05:10:25;16.20;99.90
54429;DHT22;40337;52.978;6.310;2023-07-13T05:12:51;16.20;99.90
54429;DHT22;40337;52.978;6.310;2023-07-13T05:15:17;16.20;99.90
54429;DHT22;40337;52.978;6.310;2023-07-13T05:17:47;16.10;99.90
54429;DHT22;40337;52.978;6.310;2023-07-13T05:20:13;16.20;99.90
54429;DHT22;40337;52.978;6.310;2023-07-13T05:22:39;16.20;99.90
54429;DHT22;40337;52.978;6.310;2023-07-13T05:25:05;16.20;99.90
54429;DHT22;40337;52.978;6.310;2023-07-13T05:27:32;16.30;99.90
54429;DHT22;40337;52.978;6.310;2023-07-13T05:29:57;16.30;99.90
54429;DHT22;40337;52.978;6.310;2023-07-13T05:32:23;16.30;99.90
54429;DHT22;40337;52.978;6.310;2023-07-13T05:34:49;16.30;99.90
54429;DHT22;40337;52.978;6.310;2023-07-13T05:37:15;16.40;99.90
54429;DHT22;40337;52.978;6.310;2023-07-13T05:39:40;16.40;99.90
54429;DHT22;40337;52.978;6.310;2023-07-13T05:42:06;16.50;99.90
54429;DHT22;40337;52.978;6.310;2023-07-13T05:44:32;16.60;99.90
54429;DHT22;40337;52.978;6.310;2023-07-13T05:46:57;16.70;99.90
54429;DHT22;40337;52.978;6.310;2023-07-13T05:49:23;16.70;99.90
54429;DHT22;40337;52.978;6.310;2023-07-13T05:51:49;16.80;99.90
54429;DHT22;40337;52.978;6.310;2023-07-13T05:54:15;16.80;99.90
54429;DHT22;40337;52.978;6.310;2023-07-13T05:56:40;16.80;99.90
54429;DHT22;40337;52.978;6.310;2023-07-13T05:59:06;16.90;99.90
54429;DHT22;40337;52.978;6.310;2023-07-13T06:01:32;16.90;99.90
54429;DHT22;40337;52.978;6.310;2023-07-13T06:03:58;17.00;99.90
54429;DHT22;40337;52.978;6.310;2023-07-13T06:06:23;17.10;99.90
54429;DHT22;40337;52.978;6.310;2023-07-13T06:08:49;17.20;99.90
54429;DHT22;40337;52.978;6.310;2023-07-13T06:11:20;17.20;99.90
54429;DHT22;40337;52.978;6.310;2023-07-13T06:13:46;17.30;99.90
54429;DHT22;40337;52.978;6.310;2023-07-13T06:16:13;17.40;99.90
54429;DHT22;40337;52.978;6.310;2023-07-13T06:18:39;17.70;99.90
54429;DHT22;40337;52.978;6.310;2023-07-13T06:21:11;18.20;99.90
54429;DHT22;40337;52.978;6.310;2023-07-13T06:23:38;18.80;99.90
54429;DHT22;40337;52.978;6.310;2023-07-13T06:26:05;19.20;99.90
54429;DHT22;40337;52.978;6.310;2023-07-13T06:28:32;19.40;99.90
54429;DHT22;40337;52.978;6.310;2023-07-13T06:31:00;19.40;99.90
54429;DHT22;40337;52.978;6.310;2023-07-13T06:33:26;19.70;99.90
54429;DHT22;40337;52.978;6.310;2023-07-13T06:35:52;20.00;99.90
54429;DHT22;40337;52.978;6.310;2023-07-13T06:38:20;20.10;99.90
54429;DHT22;40337;52.978;6.310;2023-07-13T06:40:46;20.30;99.90
54429;DHT22;40337;52.978;6.310;2023-07-13T06:43:11;20.40;99.90
54429;DHT22;40337;52.978;6.310;2023-07-13T06:45:42;20.60;99.90
54429;DHT22;40337;52.978;6.310;2023-07-13T06:48:08;20.80;99.90
54429;DHT22;40337;52.978;6.310;2023-07-13T06:50:34;21.10;99.90
54429;DHT22;40337;52.978;6.310;2023-07-13T06:53:00;21.00;99.90
54429;DHT22;40337;52.978;6.310;2023-07-13T06:55:26;21.10;99.90
54429;DHT22;40337;52.978;6.310;2023-07-13T06:57:52;21.00;99.90
54429;DHT22;40337;52.978;6.310;2023-07-13T07:00:17;20.60;99.90
54429;DHT22;40337;52.978;6.310;2023-07-13T07:02:43;20.10;99.90
54429;DHT22;40337;52.978;6.310;2023-07-13T07:05:09;19.90;99.90
54429;DHT22;40337;52.978;6.310;2023-07-13T07:07:35;19.70;99.90
54429;DHT22;40337;52.978;6.310;2023-07-13T07:10:01;19.70;99.90
54429;DHT22;40337;52.978;6.310;2023-07-13T07:12:27;19.70;99.90
54429;DHT22;40337;52.978;6.310;2023-07-13T07:14:53;19.80;99.90
54429;DHT22;40337;52.978;6.310;2023-07-13T07:17:18;20.10;99.90
54429;DHT22;40337;52.978;6.310;2023-07-13T07:19:44;20.00;99.90
54429;DHT22;40337;52.978;6.310;2023-07-13T07:22:11;19.90;99.90
54429;DHT22;40337;52.978;6.310;2023-07-13T07:24:37;19.80;99.90
54429;DHT22;40337;52.978;6.310;2023-07-13T07:27:03;19.70;99.90
54429;DHT22;40337;52.978;6.310;2023-07-13T07:29:28;19.60;99.90
54429;DHT22;40337;52.978;6.310;2023-07-13T07:31:54;19.60;99.90
54429;DHT22;40337;52.978;6.310;2023-07-13T07:34:20;19.50;99.90
54429;DHT22;40337;52.978;6.310;2023-07-13T07:36:45;19.60;99.90
54429;DHT22;40337;52.978;6.310;2023-07-13T07:39:11;19.70;99.90
54429;DHT22;40337;52.978;6.310;2023-07-13T07:41:37;19.80;99.90
54429;DHT22;40337;52.978;6.310;2023-07-13T07:44:03;19.90;99.90
54429;DHT22;40337;52.978;6.310;2023-07-13T07:46:29;20.20;99.90
54429;DHT22;40337;52.978;6.310;2023-07-13T07:48:56;20.30;99.90
54429;DHT22;40337;52.978;6.310;2023-07-13T07:51:22;20.40;99.90
54429;DHT22;40337;52.978;6.310;2023-07-13T07:53:48;20.40;99.90
54429;DHT22;40337;52.978;6.310;2023-07-13T07:56:14;20.40;99.90
54429;DHT22;40337;52.978;6.310;2023-07-13T07:58:42;20.20;99.90
54429;DHT22;40337;52.978;6.310;2023-07-13T08:01:08;20.10;99.90
54429;DHT22;40337;52.978;6.310;2023-07-13T08:03:33;20.00;99.90
54429;DHT22;40337;52.978;6.310;2023-07-13T08:05:59;19.80;99.90
54429;DHT22;40337;52.978;6.310;2023-07-13T08:08:25;19.80;99.90
54429;DHT22;40337;52.978;6.310;2023-07-13T08:10:51;19.70;99.90
54429;DHT22;40337;52.978;6.310;2023-07-13T08:13:17;19.60;99.90
54429;DHT22;40337;52.978;6.310;2023-07-13T08:15:43;19.60;99.90
54429;DHT22;40337;52.978;6.310;2023-07-13T08:18:08;19.40;99.90
54429;DHT22;40337;52.978;6.310;2023-07-13T08:20:38;19.40;99.90
54429;DHT22;40337;52.978;6.310;2023-07-13T08:23:05;19.20;99.90
54429;DHT22;40337;52.978;6.310;2023-07-13T08:25:30;19.10;99.90
54429;DHT22;40337;52.978;6.310;2023-07-13T08:27:56;18.90;99.90
54429;DHT22;40337;52.978;6.310;2023-07-13T08:30:21;18.80;99.90
54429;DHT22;40337;52.978;6.310;2023-07-13T08:32:48;18.60;99.90
54429;DHT22;40337;52.978;6.310;2023-07-13T08:35:14;18.50;99.90
54429;DHT22;40337;52.978;6.310;2023-07-13T08:37:41;18.40;99.90
54429;DHT22;40337;52.978;6.310;2023-07-13T08:40:10;18.40;99.90
54429;DHT22;40337;52.978;6.310;2023-07-13T08:45:20;18.30;99.90
54429;DHT22;40337;52.978;6.310;2023-07-13T08:47:53;18.20;99.90
54429;DHT22;40337;52.978;6.310;2023-07-13T08:50:24;18.50;99.90
54429;DHT22;40337;52.978;6.310;2023-07-13T08:52:52;19.00;99.90
54429;DHT22;40337;52.978;6.310;2023-07-13T08:55:21;19.10;99.90
54429;DHT22;40337;52.978;6.310;2023-07-13T08:57:59;19.30;99.90
54429;DHT22;40337;52.978;6.310;2023-07-13T09:00:38;19.40;99.90
54429;DHT22;40337;52.978;6.310;2023-07-13T09:03:16;19.50;99.90
54429;DHT22;40337;52.978;6.310;2023-07-13T09:05:54;19.60;99.90
54429;DHT22;40337;52.978;6.310;2023-07-13T09:11:56;19.80;99.90
54429;DHT22;40337;52.978;6.310;2023-07-13T09:17:19;19.60;99.90
54429;DHT22;40337;52.978;6.310;2023-07-13T09:22:47;19.30;99.90
54429;DHT22;40337;52.978;6.310;2023-07-13T09:25:33;19.10;99.90
54429;DHT22;40337;52.978;6.310;2023-07-13T09:28:08;19.10;99.90
54429;DHT22;40337;52.978;6.310;2023-07-13T09:31:24;19.70;99.90
54429;DHT22;40337;52.978;6.310;2023-07-13T09:33:24;19.90;99.90
54429;DHT22;40337;52.978;6.310;2023-07-13T09:35:55;20.60;99.90
54429;DHT22;40337;52.978;6.310;2023-07-13T09:38:22;20.50;99.90
54429;DHT22;40337;52.978;6.310;2023-07-13T09:44:12;20.10;99.90
54429;DHT22;40337;52.978;6.310;2023-07-13T09:46:43;19.80;99.90
54429;DHT22;40337;52.978;6.310;2023-07-13T09:49:10;19.60;99.90
54429;DHT22;40337;52.978;6.310;2023-07-13T09:51:38;19.40;99.90
54429;DHT22;40337;52.978;6.310;2023-07-13T09:54:04;19.20;99.90
54429;DHT22;40337;52.978;6.310;2023-07-13T09:56:31;19.20;99.90
54429;DHT22;40337;52.978;6.310;2023-07-13T09:58:57;19.10;99.90
54429;DHT22;40337;52.978;6.310;2023-07-13T10:01:37;19.10;99.90
54429;DHT22;40337;52.978;6.310;2023-07-13T10:04:11;19.10;99.90
54429;DHT22;40337;52.978;6.310;2023-07-13T10:06:39;19.00;99.90
54429;DHT22;40337;52.978;6.310;2023-07-13T10:09:08;19.00;99.90
54429;DHT22;40337;52.978;6.310;2023-07-13T10:11:36;19.00;99.90
54429;DHT22;40337;52.978;6.310;2023-07-13T10:14:15;19.10;99.90
54429;DHT22;40337;52.978;6.310;2023-07-13T10:16:43;19.10;99.90
54429;DHT22;40337;52.978;6.310;2023-07-13T10:19:25;19.00;99.90
54429;DHT22;40337;52.978;6.310;2023-07-13T10:22:19;19.00;99.90
54429;DHT22;40337;52.978;6.310;2023-07-13T10:24:48;19.00;99.90
54429;DHT22;40337;52.978;6.310;2023-07-13T10:27:18;18.90;99.90
54429;DHT22;40337;52.978;6.310;2023-07-13T10:32:34;18.80;99.90
54429;DHT22;40337;52.978;6.310;2023-07-13T10:34:59;18.90;99.90
54429;DHT22;40337;52.978;6.310;2023-07-13T10:37:33;18.90;99.90
54429;DHT22;40337;52.978;6.310;2023-07-13T10:40:01;18.90;99.90
54429;DHT22;40337;52.978;6.310;2023-07-13T10:42:35;18.90;99.90
54429;DHT22;40337;52.978;6.310;2023-07-13T10:45:02;19.30;99.90
54429;DHT22;40337;52.978;6.310;2023-07-13T10:47:28;19.90;99.90
54429;DHT22;40337;52.978;6.310;2023-07-13T10:49:57;20.60;99.90
54429;DHT22;40337;52.978;6.310;2023-07-13T10:55:30;21.80;99.90
54429;DHT22;40337;52.978;6.310;2023-07-13T10:58:01;22.20;99.90
54429;DHT22;40337;52.978;6.310;2023-07-13T11:00:30;22.70;99.90
54429;DHT22;40337;52.978;6.310;2023-07-13T11:02:58;22.40;99.90
54429;DHT22;40337;52.978;6.310;2023-07-13T11:08:02;22.10;99.90
54429;DHT22;40337;52.978;6.310;2023-07-13T11:10:55;22.10;99.90
54429;DHT22;40337;52.978;6.310;2023-07-13T11:21:31;23.90;99.50
54429;DHT22;40337;52.978;6.310;2023-07-13T11:31:51;24.00;98.10
54429;DHT22;40337;52.978;6.310;2023-07-13T11:34:24;24.40;98.10
54429;DHT22;40337;52.978;6.310;2023-07-13T11:36:52;24.40;97.30
54429;DHT22;40337;52.978;6.310;2023-07-13T11:39:21;24.50;97.10
54429;DHT22;40337;52.978;6.310;2023-07-13T11:41:58;24.90;97.50
54429;DHT22;40337;52.978;6.310;2023-07-13T11:44:27;24.50;96.00
54429;DHT22;40337;52.978;6.310;2023-07-13T11:47:20;24.10;96.10
54429;DHT22;40337;52.978;6.310;2023-07-13T11:49:54;24.30;96.40
54429;DHT22;40337;52.978;6.310;2023-07-13T11:52:35;24.00;96.20
54429;DHT22;40337;52.978;6.310;2023-07-13T11:55:04;23.70;95.70
54429;DHT22;40337;52.978;6.310;2023-07-13T11:57:47;23.20;96.20
54429;DHT22;40337;52.978;6.310;2023-07-13T12:00:16;22.80;96.20
54429;DHT22;40337;52.978;6.310;2023-07-13T12:02:45;23.20;96.50
54429;DHT22;40337;52.978;6.310;2023-07-13T12:05:13;23.60;96.80
54429;DHT22;40337;52.978;6.310;2023-07-13T12:07:40;24.00;95.30
54429;DHT22;40337;52.978;6.310;2023-07-13T12:12:37;24.60;94.90
54429;DHT22;40337;52.978;6.310;2023-07-13T12:15:07;24.40;94.80
54429;DHT22;40337;52.978;6.310;2023-07-13T12:17:34;23.70;94.40
54429;DHT22;40337;52.978;6.310;2023-07-13T12:20:40;23.60;94.90
54429;DHT22;40337;52.978;6.310;2023-07-13T12:22:59;23.20;94.30
54429;DHT22;40337;52.978;6.310;2023-07-13T12:25:27;22.80;94.60
54429;DHT22;40337;52.978;6.310;2023-07-13T12:27:53;22.60;94.70
54429;DHT22;40337;52.978;6.310;2023-07-13T12:30:30;22.60;94.40
54429;DHT22;40337;52.978;6.310;2023-07-13T12:33:07;22.50;94.30
54429;DHT22;40337;52.978;6.310;2023-07-13T12:35:42;22.20;94.30
54429;DHT22;40337;52.978;6.310;2023-07-13T12:38:11;22.50;95.10
54429;DHT22;40337;52.978;6.310;2023-07-13T12:40:37;23.00;95.00
54429;DHT22;40337;52.978;6.310;2023-07-13T12:43:03;23.10;94.60
54429;DHT22;40337;52.978;6.310;2023-07-13T12:45:32;23.20;94.00
54429;DHT22;40337;52.978;6.310;2023-07-13T12:48:10;23.50;94.40
54429;DHT22;40337;52.978;6.310;2023-07-13T12:50:40;23.60;94.50
54429;DHT22;40337;52.978;6.310;2023-07-13T12:53:14;23.50;93.70
54429;DHT22;40337;52.978;6.310;2023-07-13T12:55:47;23.30;94.10
54429;DHT22;40337;52.978;6.310;2023-07-13T12:58:26;23.20;94.00
54429;DHT22;40337;52.978;6.310;2023-07-13T13:00:55;23.00;94.00
54429;DHT22;40337;52.978;6.310;2023-07-13T13:03:40;22.90;94.30
54429;DHT22;40337;52.978;6.310;2023-07-13T13:08:52;22.90;94.10
54429;DHT22;40337;52.978;6.310;2023-07-13T13:11:20;23.00;94.50
54429;DHT22;40337;52.978;6.310;2023-07-13T13:13:46;22.90;94.00
54429;DHT22;40337;52.978;6.310;2023-07-13T13:16:32;23.20;93.80
54429;DHT22;40337;52.978;6.310;2023-07-13T13:19:05;23.70;93.40
54429;DHT22;40337;52.978;6.310;2023-07-13T13:21:35;24.10;92.90
54429;DHT22;40337;52.978;6.310;2023-07-13T13:24:01;24.20;92.80
54429;DHT22;40337;52.978;6.310;2023-07-13T13:26:26;24.50;93.10
54429;DHT22;40337;52.978;6.310;2023-07-13T13:28:52;24.60;93.20
54429;DHT22;40337;52.978;6.310;2023-07-13T13:31:19;24.60;93.10
54429;DHT22;40337;52.978;6.310;2023-07-13T13:33:45;24.80;93.00
54429;DHT22;40337;52.978;6.310;2023-07-13T13:36:18;24.70;92.70
54429;DHT22;40337;52.978;6.310;2023-07-13T13:38:44;24.70;92.90
54429;DHT22;40337;52.978;6.310;2023-07-13T13:41:13;24.80;93.20
54429;DHT22;40337;52.978;6.310;2023-07-13T13:43:40;24.80;92.40
54429;DHT22;40337;52.978;6.310;2023-07-13T13:46:17;24.80;92.80
54429;DHT22;40337;52.978;6.310;2023-07-13T13:48:44;24.90;92.70
54429;DHT22;40337;52.978;6.310;2023-07-13T13:53:43;25.10;92.40
54429;DHT22;40337;52.978;6.310;2023-07-13T13:56:09;25.30;92.50
54429;DHT22;40337;52.978;6.310;2023-07-13T13:58:34;25.20;92.20
54429;DHT22;40337;52.978;6.310;2023-07-13T14:01:00;25.20;92.10
54429;DHT22;40337;52.978;6.310;2023-07-13T14:03:26;25.20;91.90
54429;DHT22;40337;52.978;6.310;2023-07-13T14:05:54;25.30;92.10
54429;DHT22;40337;52.978;6.310;2023-07-13T14:08:22;25.20;91.90
54429;DHT22;40337;52.978;6.310;2023-07-13T14:10:51;25.00;91.60
54429;DHT22;40337;52.978;6.310;2023-07-13T14:13:40;25.00;91.30
54429;DHT22;40337;52.978;6.310;2023-07-13T14:16:18;25.20;91.50
54429;DHT22;40337;52.978;6.310;2023-07-13T14:18:45;25.20;91.30
54429;DHT22;40337;52.978;6.310;2023-07-13T14:21:13;25.20;91.20
54429;DHT22;40337;52.978;6.310;2023-07-13T14:23:39;25.10;91.50
54429;DHT22;40337;52.978;6.310;2023-07-13T14:26:13;25.30;91.80
54429;DHT22;40337;52.978;6.310;2023-07-13T14:28:47;25.40;91.60
54429;DHT22;40337;52.978;6.310;2023-07-13T14:31:15;25.30;91.30
54429;DHT22;40337;52.978;6.310;2023-07-13T14:33:42;24.90;90.60
54429;DHT22;40337;52.978;6.310;2023-07-13T14:36:33;24.80;90.70
54429;DHT22;40337;52.978;6.310;2023-07-13T14:39:05;24.80;91.30
54429;DHT22;40337;52.978;6.310;2023-07-13T14:41:34;24.80;91.30
54429;DHT22;40337;52.978;6.310;2023-07-13T14:44:00;24.70;91.30
54429;DHT22;40337;52.978;6.310;2023-07-13T14:46:31;24.80;91.80
54429;DHT22;40337;52.978;6.310;2023-07-13T14:49:13;24.90;91.50
54429;DHT22;40337;52.978;6.310;2023-07-13T14:51:40;24.70;91.10
54429;DHT22;40337;52.978;6.310;2023-07-13T14:54:08;24.60;91.20
54429;DHT22;40337;52.978;6.310;2023-07-13T14:56:35;24.60;90.70
54429;DHT22;40337;52.978;6.310;2023-07-13T14:59:00;24.70;91.00
54429;DHT22;40337;52.978;6.310;2023-07-13T15:01:26;24.60;91.10
54429;DHT22;40337;52.978;6.310;2023-07-13T15:03:53;24.50;91.20
54429;DHT22;40337;52.978;6.310;2023-07-13T15:06:19;24.60;91.30
54429;DHT22;40337;52.978;6.310;2023-07-13T15:08:45;24.50;91.10
54429;DHT22;40337;52.978;6.310;2023-07-13T15:11:11;24.50;91.00
54429;DHT22;40337;52.978;6.310;2023-07-13T15:13:40;24.40;91.50
54429;DHT22;40337;52.978;6.310;2023-07-13T15:16:17;24.40;91.30
54429;DHT22;40337;52.978;6.310;2023-07-13T15:18:45;24.50;91.20
54429;DHT22;40337;52.978;6.310;2023-07-13T15:21:15;24.30;91.10
54429;DHT22;40337;52.978;6.310;2023-07-13T15:23:42;24.30;91.20
54429;DHT22;40337;52.978;6.310;2023-07-13T15:26:12;24.30;91.10
54429;DHT22;40337;52.978;6.310;2023-07-13T15:28:44;24.10;91.10
54429;DHT22;40337;52.978;6.310;2023-07-13T15:31:22;24.20;91.90
54429;DHT22;40337;52.978;6.310;2023-07-13T15:33:52;24.00;92.10
54429;DHT22;40337;52.978;6.310;2023-07-13T15:36:19;24.10;92.30
54429;DHT22;40337;52.978;6.310;2023-07-13T15:38:46;23.90;91.90
54429;DHT22;40337;52.978;6.310;2023-07-13T15:41:27;24.00;92.00
54429;DHT22;40337;52.978;6.310;2023-07-13T15:43:57;23.90;92.30
54429;DHT22;40337;52.978;6.310;2023-07-13T15:46:24;23.80;92.70
54429;DHT22;40337;52.978;6.310;2023-07-13T15:48:51;23.90;92.30
54429;DHT22;40337;52.978;6.310;2023-07-13T15:51:25;23.90;92.40
54429;DHT22;40337;52.978;6.310;2023-07-13T15:53:58;24.00;92.50
54429;DHT22;40337;52.978;6.310;2023-07-13T15:56:27;23.70;92.60
54429;DHT22;40337;52.978;6.310;2023-07-13T15:58:54;23.80;92.90
54429;DHT22;40337;52.978;6.310;2023-07-13T16:01:20;23.80;93.00
54429;DHT22;40337;52.978;6.310;2023-07-13T16:03:47;23.70;92.80
54429;DHT22;40337;52.978;6.310;2023-07-13T16:06:23;23.60;92.80
54429;DHT22;40337;52.978;6.310;2023-07-13T16:08:51;23.60;93.10
54429;DHT22;40337;52.978;6.310;2023-07-13T16:11:22;23.60;92.60
54429;DHT22;40337;52.978;6.310;2023-07-13T16:13:48;23.60;92.70
54429;DHT22;40337;52.978;6.310;2023-07-13T16:16:27;23.60;93.00
54429;DHT22;40337;52.978;6.310;2023-07-13T16:18:55;23.60;93.10
54429;DHT22;40337;52.978;6.310;2023-07-13T16:21:23;23.60;93.20
54429;DHT22;40337;52.978;6.310;2023-07-13T16:23:50;23.40;92.80
54429;DHT22;40337;52.978;6.310;2023-07-13T16:26:28;23.40;93.50